createdAt,value
2023-07-25T00:04:08.336Z,97
2023-07-25T00:09:08.053Z,97
2023-07-25T00:14:07.501Z,97
2023-07-25T00:19:05.566Z,97
2023-07-25T00:24:05.830Z,97
2023-07-25T00:29:05.810Z,97
2023-07-25T00:34:05.515Z,97
2023-07-25T00:39:04.879Z,97
2023-07-25T00:44:05.071Z,97
2023-07-25T00:49:04.920Z,97
2023-07-25T00:54:04.300Z,98
2023-07-25T00:59:05.717Z,98
2023-07-25T01:04:02.114Z,97
2023-07-25T01:09:01.583Z,98
2023-07-25T01:14:01.952Z,97
2023-07-25T01:19:01.881Z,97
2023-07-25T01:23:59.217Z,98
2023-07-25T01:28:58.682Z,98
2023-07-25T01:33:58.711Z,97
2023-07-25T01:38:58.526Z,98
2023-07-25T01:43:57.750Z,98
2023-07-25T01:48:57.922Z,98
2023-07-25T01:53:57.987Z,98
2023-07-25T01:58:58.336Z,98
2023-07-25T02:05:31.281Z,98
2023-07-25T02:10:31.279Z,98
2023-07-25T02:15:19.702Z,98
2023-07-25T02:20:19.922Z,99
2023-07-25T02:25:19.737Z,98
2023-07-25T02:30:19.107Z,98
2023-07-25T02:35:20.619Z,98
2023-07-25T02:40:16.703Z,98
2023-07-25T02:45:16.269Z,98
2023-07-25T02:50:16.784Z,98
2023-07-25T02:55:16.535Z,98
2023-07-25T02:59:38.420Z,98
2023-07-25T03:04:37.856Z,98
2023-07-25T03:09:38.173Z,98
2023-07-25T03:14:38.086Z,98
2023-07-25T03:19:37.166Z,98
2023-07-25T03:24:37.510Z,98
2023-07-25T03:29:37.344Z,98
2023-07-25T03:34:37.584Z,98
2023-07-25T03:39:35.059Z,98
2023-07-25T03:44:36.609Z,98
2023-07-25T03:49:34.526Z,98
2023-07-25T03:54:34.380Z,98
2023-07-25T03:59:34.076Z,98
2023-07-25T04:04:34.340Z,98
2023-07-25T04:09:33.990Z,98
2023-07-25T04:14:35.716Z,98
2023-07-25T04:19:32.555Z,99
2023-07-25T04:24:33.171Z,98
2023-07-25T04:29:35.481Z,99
2023-07-25T04:34:30.989Z,99
2023-07-25T04:39:31.404Z,99
2023-07-25T04:44:31.777Z,99
2023-07-25T04:49:19.370Z,99
2023-07-25T04:54:18.898Z,99
2023-07-25T04:59:03.947Z,99
2023-07-25T05:04:03.909Z,99
2023-07-25T05:09:03.156Z,99
2023-07-25T05:14:03.293Z,98
2023-07-25T05:19:03.634Z,98
2023-07-25T05:24:03.609Z,98
2023-07-25T05:29:01.119Z,97
2023-07-25T05:34:00.561Z,97
2023-07-25T05:39:00.618Z,97
2023-07-25T05:44:00.448Z,97
2023-07-25T05:48:59.704Z,97
2023-07-25T05:53:59.858Z,97
2023-07-25T05:59:00.020Z,97
2023-07-25T06:03:59.724Z,96
2023-07-25T06:09:01.252Z,96
2023-07-25T06:13:57.435Z,95
2023-07-25T06:18:56.891Z,95
2023-07-25T06:23:57.210Z,95
2023-07-25T06:28:57.404Z,95
2023-07-25T06:33:54.759Z,95
2023-07-25T06:38:55.051Z,95
2023-07-25T06:43:55.215Z,95
2023-07-25T06:48:54.936Z,94
2023-07-25T06:53:53.013Z,94
2023-07-25T06:58:52.422Z,94
2023-07-25T07:00:23.769Z,93
2023-07-25T07:05:29.073Z,93
2023-07-25T07:10:12.325Z,94
2023-07-25T07:15:11.809Z,94
2023-07-25T07:20:11.891Z,94
2023-07-25T07:25:11.734Z,93
2023-07-25T07:30:11.150Z,93
2023-07-25T07:35:11.376Z,92
2023-07-25T07:40:11.276Z,91
2023-07-25T07:45:10.730Z,90
2023-07-25T07:50:12.378Z,89
2023-07-25T07:55:08.330Z,88
2023-07-25T07:59:29.963Z,88
2023-07-25T08:04:29.942Z,89
2023-07-25T08:09:29.621Z,89
2023-07-25T08:14:27.306Z,89
2023-07-25T08:19:37.230Z,88
2023-07-25T08:24:37.241Z,87
2023-07-25T08:29:35.675Z,86
2023-07-25T08:34:35.919Z,86
2023-07-25T08:39:36.085Z,83
2023-07-25T08:44:35.089Z,82
2023-07-25T08:49:35.204Z,80
2023-07-25T08:54:37.326Z,78
2023-07-25T08:59:36.212Z,78
2023-07-25T09:04:33.132Z,72
2023-07-25T09:09:33.864Z,72
2023-07-25T09:14:36.013Z,72
2023-07-25T09:19:31.853Z,71
2023-07-25T09:24:32.493Z,67
2023-07-25T09:29:32.759Z,69
2023-07-25T09:34:30.652Z,72
2023-07-25T09:39:30.858Z,72
2023-07-25T09:44:30.859Z,69
2023-07-25T09:49:19.215Z,71
2023-07-25T09:54:19.239Z,71
2023-07-25T09:59:21.893Z,72
2023-07-25T10:04:03.877Z,74
2023-07-25T10:14:01.388Z,65
2023-07-25T10:19:01.770Z,60
2023-07-25T10:24:01.680Z,60
2023-07-25T10:29:01.210Z,55
2023-07-25T10:34:01.467Z,63
2023-07-25T10:39:01.553Z,56
2023-07-25T10:44:03.223Z,55
2023-07-25T10:49:02.671Z,59
2023-07-25T10:53:58.804Z,57
2023-07-25T10:58:58.344Z,59
2023-07-25T11:03:58.464Z,62
2023-07-25T11:08:58.428Z,59
2023-07-25T11:13:55.917Z,59
2023-07-25T11:18:55.407Z,56
2023-07-25T11:23:55.518Z,50
2023-07-25T11:28:55.396Z,53
2023-07-25T11:33:54.778Z,56
2023-07-25T11:38:55.072Z,55
2023-07-25T11:43:54.757Z,48
2023-07-25T11:48:55.125Z,54
2023-07-25T11:53:52.670Z,55
2023-07-25T11:58:52.156Z,51
2023-07-25T12:00:23.549Z,51
2023-07-25T12:05:14.387Z,53
2023-07-25T12:10:13.986Z,51
2023-07-25T12:15:14.082Z,52
2023-07-25T12:20:14.034Z,46
2023-07-25T12:25:13.674Z,52
2023-07-25T12:35:11.327Z,54
2023-07-25T12:40:10.729Z,56
2023-07-25T12:50:11.067Z,57
2023-07-25T12:55:08.388Z,54
2023-07-25T12:59:29.226Z,54
2023-07-25T13:04:29.430Z,58
2023-07-25T13:09:28.895Z,56
2023-07-25T13:14:28.184Z,56
2023-07-25T13:19:28.385Z,56
2023-07-25T13:24:29.109Z,54
2023-07-25T13:29:29.137Z,53
2023-07-25T13:34:37.174Z,56
2023-07-25T13:39:37.868Z,59
2023-07-25T13:44:37.107Z,58
2023-07-25T13:49:35.818Z,56
2023-07-25T13:54:35.675Z,55
2023-07-25T13:59:20.193Z,55
2023-07-25T14:04:20.002Z,53
2023-07-25T14:09:17.549Z,54
2023-07-25T14:14:16.972Z,56
2023-07-25T14:19:16.896Z,52
2023-07-25T14:24:16.622Z,51
2023-07-25T14:29:15.781Z,51
2023-07-25T14:34:15.946Z,51
2023-07-25T14:39:15.744Z,48
2023-07-25T14:44:15.272Z,52
2023-07-25T14:53:50.032Z,52
2023-07-25T15:04:30.042Z,49
2023-07-25T15:09:30.217Z,50
2023-07-25T15:14:33.604Z,51
2023-07-25T15:19:28.586Z,51
2023-07-25T15:24:27.273Z,54
2023-07-25T15:29:27.524Z,55
2023-07-25T15:34:27.375Z,54
2023-07-25T15:39:35.268Z,55
2023-07-25T15:44:35.652Z,54
2023-07-25T15:49:35.596Z,52
2023-07-25T15:54:34.418Z,54
2023-07-25T15:59:10.102Z,57
2023-07-25T16:04:10.146Z,58
2023-07-25T16:09:09.835Z,59
2023-07-25T16:14:09.153Z,58
2023-07-25T16:19:09.307Z,60
2023-07-25T16:24:09.168Z,60
2023-07-25T16:29:09.306Z,61
2023-07-25T16:34:07.099Z,62
2023-07-25T16:39:06.973Z,63
2023-07-25T16:44:06.320Z,64
2023-07-25T16:49:07.892Z,61
2023-07-25T16:54:03.858Z,60
2023-07-25T16:59:03.461Z,61
2023-07-25T17:04:03.919Z,62
2023-07-25T17:09:03.517Z,61
2023-07-25T17:14:00.952Z,62
2023-07-25T17:19:00.492Z,62
2023-07-25T17:24:00.496Z,60
2023-07-25T17:29:00.295Z,61
2023-07-25T17:33:59.673Z,61
2023-07-25T17:39:00.000Z,61
2023-07-25T17:43:59.965Z,63
2023-07-25T17:48:59.550Z,61
2023-07-25T17:54:00.947Z,62
2023-07-25T17:58:56.937Z,64
2023-07-25T18:05:16.834Z,66
2023-07-25T18:10:17.182Z,66
2023-07-25T18:15:17.253Z,67
2023-07-25T18:20:16.633Z,67
2023-07-25T18:25:15.849Z,68
2023-07-25T18:30:15.917Z,69
2023-07-25T18:35:15.786Z,70
2023-07-25T18:40:15.136Z,71
2023-07-25T18:45:16.590Z,72
2023-07-25T18:50:12.637Z,72
2023-07-25T18:59:34.035Z,72
2023-07-25T19:04:33.823Z,73
2023-07-25T19:09:31.313Z,74
2023-07-25T19:14:30.693Z,75
2023-07-25T19:19:30.568Z,76
2023-07-25T19:24:30.302Z,77
2023-07-25T19:29:28.256Z,78
2023-07-25T19:34:27.695Z,78
2023-07-25T19:39:27.937Z,79
2023-07-25T19:44:27.146Z,80
2023-07-25T19:49:27.317Z,81
2023-07-25T19:54:27.228Z,82
2023-07-25T19:59:32.113Z,83
2023-07-25T20:04:30.987Z,84
2023-07-25T20:09:30.887Z,85
2023-07-25T20:14:20.296Z,85
2023-07-25T20:19:20.162Z,86
2023-07-25T20:24:17.776Z,86
2023-07-25T20:29:17.401Z,86
2023-07-25T20:34:17.975Z,87
2023-07-25T20:39:17.150Z,87
2023-07-25T20:44:16.635Z,88
2023-07-25T20:49:16.839Z,88
2023-07-25T20:54:16.697Z,89
2023-07-25T20:59:02.194Z,89
2023-07-25T21:00:34.706Z,90
2023-07-25T21:05:34.881Z,90
2023-07-25T21:10:34.875Z,90
2023-07-25T21:15:32.926Z,90
2023-07-25T21:20:33.226Z,91
2023-07-25T21:25:33.430Z,91
2023-07-25T21:30:31.418Z,91
2023-07-25T21:35:31.457Z,91
2023-07-25T21:40:31.607Z,91
2023-07-25T21:45:19.981Z,91
2023-07-25T21:50:20.290Z,91
2023-07-25T21:55:20.146Z,91
2023-07-25T21:59:42.112Z,91
2023-07-25T22:04:43.621Z,91
2023-07-25T22:09:39.634Z,91
2023-07-25T22:14:39.337Z,91
2023-07-25T22:19:39.436Z,91
2023-07-25T22:24:39.319Z,92
2023-07-25T22:29:36.521Z,92
2023-07-25T22:34:36.788Z,92
2023-07-25T22:39:36.245Z,92
2023-07-25T22:44:37.606Z,92
2023-07-25T22:49:34.033Z,92
2023-07-25T22:54:34.002Z,93
2023-07-25T22:59:34.052Z,93
2023-07-25T23:04:32.096Z,93
2023-07-25T23:09:32.289Z,93
2023-07-25T23:14:34.268Z,93
2023-07-25T23:19:31.316Z,93
2023-07-25T23:24:31.249Z,93
2023-07-25T23:29:31.460Z,94
2023-07-25T23:34:19.042Z,94
2023-07-25T23:39:19.406Z,94
2023-07-25T23:44:19.242Z,94
2023-07-25T23:49:19.017Z,94
2023-07-25T23:54:18.246Z,94
2023-07-25T23:59:03.475Z,94
